GCGM/GMZ METAR and TAF weather

Enter ICAO airport designator
Station Type Date Time Source
GCGM METAR 2022/05/26 05:30 UTC NOAA

GCGM 260530Z AUTO 30003KT 210V340 CAVOK 18/12 Q1017 RMK R09/VRB02KT ARP/VRB02KT


Station Type Date Time Source
GCGM Decoded METAR 2022/05/26 05:30 UTC NOAA

Station name not available
May 26, 2022 - 01:30 AM EDT / 2022.05.26 0530 UTC
Wind: from the WNW (300 degrees) at 3 MPH (3 KT) (direction variable):0
Visibility: greater than 7 mile(s):0
Temperature: 64 F (18 C)
Dew Point: 53 F (12 C)
Relative Humidity: 67%
Pressure (altimeter): 30.03 in. Hg (1017 hPa)
ob: GCGM 260530Z AUTO 30003KT 210V340 CAVOK 18/12 Q1017 RMK R09/VRB02KT ARP/VRB02KT
cycle: 5

Station Type Date Time Source
GCGM TAF 2022/05/26 03:00 UTC NOAA

TAF GCGM 260200Z 2603/2703 36006KT 9999 FEW025 TX25/2614Z TN18/2606Z PROB30
TEMPO 2603/2606 VRB15G25KT
TEMPO 2609/2619 22010KT

Example: see airport list